createdAt,value
2023-10-21T00:01:52.941Z,101471.28
2023-10-21T00:04:20.849Z,101481.06
2023-10-21T00:06:48.763Z,101477.78
2023-10-21T00:09:17.050Z,101471.09
2023-10-21T00:11:45.181Z,101474.56
2023-10-21T00:14:13.139Z,101475.38
2023-10-21T00:16:42.690Z,101469.28
2023-10-21T00:19:12.118Z,101457.09
2023-10-21T00:21:42.101Z,101459.81
2023-10-21T00:24:10.278Z,101425.78
2023-10-21T00:26:48.788Z,101447.63
2023-10-21T00:29:16.891Z,101437.84
2023-10-21T00:31:46.771Z,101398.09
2023-10-21T00:34:14.690Z,101441.16
2023-10-21T00:36:42.555Z,101441.84
2023-10-21T00:39:12.481Z,101438.66
2023-10-21T00:41:41.165Z,101396.97
2023-10-21T00:44:09.873Z,101442.34
2023-10-21T00:46:38.204Z,101433.75
2023-10-21T00:49:07.756Z,101432.75
2023-10-21T00:51:36.667Z,101431.56
2023-10-21T00:54:06.036Z,101428.38
2023-10-21T00:56:33.985Z,101436.34
2023-10-21T00:59:02.443Z,101413.78
2023-10-21T01:01:30.520Z,101436.03
2023-10-21T01:03:59.066Z,101445.00
2023-10-21T01:06:28.870Z,101428.31
2023-10-21T01:08:56.778Z,101435.94
2023-10-21T01:11:24.710Z,101444.19
2023-10-21T01:13:53.052Z,101442.50
2023-10-21T01:16:20.934Z,101448.69
2023-10-21T01:18:48.973Z,101436.91
2023-10-21T01:21:16.912Z,101452.16
2023-10-21T01:23:46.221Z,101449.28
2023-10-21T01:26:14.534Z,101436.72
2023-10-21T01:28:42.820Z,101415.81
2023-10-21T01:31:10.670Z,101439.50
2023-10-21T01:33:38.644Z,101430.84
2023-10-21T01:36:06.922Z,101438.31
2023-10-21T01:38:34.838Z,101438.44
2023-10-21T01:41:04.696Z,101448.09
2023-10-21T01:43:32.956Z,101430.63
2023-10-21T01:46:06.452Z,101426.06
2023-10-21T01:48:34.634Z,101417.97
2023-10-21T01:51:05.841Z,101375.03
2023-10-21T01:53:34.141Z,101402.31
2023-10-21T01:56:04.412Z,101393.91
2023-10-21T01:58:33.996Z,101391.41
2023-10-21T02:01:09.817Z,101394.81
2023-10-21T02:03:37.829Z,101393.03
2023-10-21T02:06:07.840Z,101377.25
2023-10-21T02:08:36.048Z,101369.56
2023-10-21T02:11:05.305Z,101368.66
2023-10-21T02:13:33.204Z,101361.78
2023-10-21T02:16:01.138Z,101351.41
2023-10-21T02:18:29.449Z,101343.22
2023-10-21T02:20:57.439Z,101352.47
2023-10-21T02:23:25.350Z,101348.09
2023-10-21T02:26:01.370Z,101362.16
2023-10-21T02:28:30.648Z,101345.69
2023-10-21T02:30:58.637Z,101358.84
2023-10-21T02:33:26.750Z,101343.28
2023-10-21T02:35:56.783Z,101328.78
2023-10-21T02:38:25.127Z,101335.06
2023-10-21T02:40:53.541Z,101337.03
2023-10-21T02:43:21.426Z,101356.19
2023-10-21T02:45:50.798Z,101339.81
2023-10-21T02:48:18.816Z,101353.69
2023-10-21T02:50:46.905Z,101352.53
2023-10-21T02:53:14.781Z,101352.09
2023-10-21T02:55:42.643Z,101342.88
2023-10-21T02:58:10.527Z,101354.97
2023-10-21T03:00:38.745Z,101345.38
2023-10-21T03:03:08.624Z,101351.56
2023-10-21T03:05:36.541Z,101329.81
2023-10-21T03:08:04.853Z,101341.88
2023-10-21T03:10:32.749Z,101350.84
2023-10-21T03:13:00.709Z,101335.34
2023-10-21T03:15:28.645Z,101337.34
2023-10-21T03:17:56.645Z,101351.31
2023-10-21T03:20:26.364Z,101341.81
2023-10-21T03:22:54.258Z,101348.72
2023-10-21T03:25:22.693Z,101349.53
2023-10-21T03:27:50.642Z,101353.91
2023-10-21T03:30:18.726Z,101350.50
2023-10-21T03:32:48.030Z,101350.50
2023-10-21T03:35:15.948Z,101333.19
2023-10-21T03:37:45.324Z,101357.31
2023-10-21T03:40:14.123Z,101346.66
2023-10-21T03:42:41.998Z,101354.63
2023-10-21T03:45:10.560Z,101317.25
2023-10-21T03:47:38.792Z,101354.44
2023-10-21T03:50:08.013Z,101344.03
2023-10-21T03:52:35.870Z,101368.22
2023-10-21T03:55:05.803Z,101372.53
2023-10-21T03:57:33.810Z,101349.94
2023-10-21T04:00:02.409Z,101354.16
2023-10-21T04:02:30.324Z,101350.56
2023-10-21T04:04:58.199Z,101342.59
2023-10-21T04:07:26.114Z,101354.16
2023-10-21T04:09:53.975Z,101346.91
2023-10-21T04:12:23.470Z,101354.88
2023-10-21T04:14:51.355Z,101347.00
2023-10-21T04:17:19.816Z,101352.19
2023-10-21T04:19:47.650Z,101327.78
2023-10-21T04:22:15.603Z,101352.97
2023-10-21T04:24:43.858Z,101352.38
2023-10-21T04:27:12.821Z,101332.50
2023-10-21T04:29:42.160Z,101341.97
2023-10-21T04:32:10.115Z,101319.50
2023-10-21T04:34:37.993Z,101283.13
2023-10-21T04:37:05.853Z,101297.66
2023-10-21T04:39:34.845Z,101319.16
2023-10-21T04:42:02.836Z,101322.66
2023-10-21T04:44:30.721Z,101319.34
2023-10-21T04:47:00.213Z,101319.34
2023-10-21T04:49:28.157Z,101318.53
2023-10-21T04:51:56.019Z,101300.44
2023-10-21T04:54:23.993Z,101321.03
2023-10-21T04:56:52.060Z,101324.91
2023-10-21T04:59:19.933Z,101330.28
2023-10-21T05:01:47.823Z,101330.44
2023-10-21T05:04:17.120Z,101346.41
2023-10-21T05:06:45.334Z,101343.72
2023-10-21T05:09:13.497Z,101350.06
2023-10-21T05:11:41.361Z,101357.88
2023-10-21T05:14:09.323Z,101355.72
2023-10-21T05:16:37.262Z,101371.84
2023-10-21T05:19:06.074Z,101377.13
2023-10-21T05:21:35.427Z,101400.53
2023-10-21T05:24:03.381Z,101383.13
2023-10-21T05:26:31.651Z,101376.34
2023-10-21T05:28:59.918Z,101384.94
2023-10-21T05:31:27.984Z,101376.16
2023-10-21T05:33:58.952Z,101371.66
2023-10-21T05:36:27.494Z,101382.06
2023-10-21T05:38:56.853Z,101378.66
2023-10-21T05:41:24.789Z,101389.84
2023-10-21T05:43:53.145Z,101372.56
2023-10-21T05:46:21.077Z,101388.16
2023-10-21T05:48:49.001Z,101373.47
2023-10-21T05:51:17.327Z,101382.16
2023-10-21T05:53:45.268Z,101366.91
2023-10-21T05:56:14.584Z,101387.25
2023-10-21T05:58:43.881Z,101383.50
2023-10-21T06:01:13.183Z,101395.06
2023-10-21T06:03:41.613Z,101388.16
2023-10-21T06:06:09.773Z,101355.16
2023-10-21T06:08:37.696Z,101375.53
2023-10-21T06:11:05.717Z,101375.63
2023-10-21T06:13:34.982Z,101387.09
2023-10-21T06:16:02.879Z,101384.59
2023-10-21T06:18:30.874Z,101376.06
2023-10-21T06:20:58.870Z,101383.88
2023-10-21T06:23:26.805Z,101366.56
2023-10-21T06:25:56.086Z,101385.75
2023-10-21T06:28:24.073Z,101376.34
2023-10-21T06:30:53.359Z,101383.31
2023-10-21T06:33:21.310Z,101372.03
2023-10-21T06:35:49.577Z,101372.84
2023-10-21T06:38:18.266Z,101374.91
2023-10-21T06:40:58.937Z,101369.00
2023-10-21T06:43:34.613Z,101369.06
2023-10-21T06:46:04.179Z,101377.16
2023-10-21T06:48:33.139Z,101379.03
2023-10-21T06:51:01.154Z,101363.47
2023-10-21T06:53:29.147Z,101373.88
2023-10-21T06:55:57.387Z,101374.06
2023-10-21T06:58:25.271Z,101373.34
2023-10-21T07:00:53.156Z,101371.63
2023-10-21T07:03:22.739Z,101369.13
2023-10-21T07:05:51.061Z,101354.41
2023-10-21T07:08:19.258Z,101337.66
2023-10-21T07:10:47.140Z,101362.31
2023-10-21T07:13:15.649Z,101344.75
2023-10-21T07:15:43.581Z,101364.91
2023-10-21T07:18:11.631Z,101365.16
2023-10-21T07:20:40.933Z,101357.47
2023-10-21T07:23:10.763Z,101345.91
2023-10-21T07:25:40.436Z,101362.09
2023-10-21T07:28:08.336Z,101352.34
2023-10-21T07:30:36.255Z,101358.06
2023-10-21T07:33:04.522Z,101338.63
2023-10-21T07:35:32.485Z,101349.44
2023-10-21T07:38:01.721Z,101360.75
2023-10-21T07:40:31.152Z,101366.84
2023-10-21T07:42:59.482Z,101357.16
2023-10-21T07:45:27.557Z,101350.53
2023-10-21T07:47:55.672Z,101350.53
2023-10-21T07:50:24.612Z,101362.72
2023-10-21T07:52:52.763Z,101354.19
2023-10-21T07:55:22.135Z,101343.78
2023-10-21T07:57:50.010Z,101347.63
2023-10-21T08:00:18.504Z,101352.09
2023-10-21T08:02:46.454Z,101337.22
2023-10-21T08:05:16.816Z,101266.56
2023-10-21T08:07:44.852Z,101361.66
2023-10-21T08:10:12.785Z,101293.22
2023-10-21T08:12:42.053Z,101357.69
2023-10-21T08:15:11.079Z,101335.63
2023-10-21T08:17:39.323Z,101338.66
2023-10-21T08:20:09.595Z,101344.59
2023-10-21T08:22:37.634Z,101341.19
2023-10-21T08:25:07.366Z,101334.25
2023-10-21T08:27:37.465Z,101353.38
2023-10-21T08:30:10.854Z,101314.72
2023-10-21T08:32:39.450Z,101312.31
2023-10-21T08:35:08.115Z,101322.88
2023-10-21T08:37:36.042Z,101325.56
2023-10-21T08:40:08.822Z,101317.84
2023-10-21T08:43:00.102Z,101315.97
2023-10-21T08:45:27.806Z,101323.78
2023-10-21T08:47:58.898Z,101322.16
2023-10-21T08:50:28.581Z,101313.44
2023-10-21T08:52:59.628Z,101294.00
2023-10-21T08:55:28.040Z,101308.25
2023-10-21T08:57:57.095Z,101321.25
2023-10-21T09:00:25.284Z,101324.88
2023-10-21T09:02:54.739Z,101330.97
2023-10-21T09:05:22.785Z,101314.63
2023-10-21T09:07:51.389Z,101313.97
2023-10-21T09:10:22.308Z,101302.84
2023-10-21T09:12:50.455Z,101277.78
2023-10-21T09:15:20.252Z,101292.66
2023-10-21T09:17:53.242Z,101271.03
2023-10-21T09:20:24.007Z,101284.94
2023-10-21T09:22:53.073Z,101280.63
2023-10-21T09:25:22.785Z,101239.44
2023-10-21T09:27:54.581Z,101273.06
2023-10-21T09:30:23.781Z,101289.50
2023-10-21T09:32:51.767Z,101281.84
2023-10-21T09:35:26.605Z,101279.41
2023-10-21T09:37:54.929Z,101284.84
2023-10-21T09:40:25.726Z,101272.88
2023-10-21T09:42:54.762Z,101278.19
2023-10-21T09:45:27.386Z,101279.16
2023-10-21T09:47:57.024Z,101271.41
2023-10-21T09:50:27.478Z,101248.31
2023-10-21T09:52:58.330Z,101246.03
2023-10-21T09:55:29.396Z,101260.09
2023-10-21T09:57:59.188Z,101268.66
2023-10-21T10:00:27.824Z,101265.06
2023-10-21T10:02:57.216Z,101246.78
2023-10-21T10:05:28.192Z,101255.41
2023-10-21T10:07:57.558Z,101242.22
2023-10-21T10:10:28.744Z,101246.78
2023-10-21T10:13:00.727Z,101249.38
2023-10-21T10:15:31.031Z,101242.47
2023-10-21T10:17:59.600Z,101252.13
2023-10-21T10:20:29.501Z,101257.34
2023-10-21T10:23:00.020Z,101245.72
2023-10-21T10:25:29.768Z,101257.25
2023-10-21T10:28:06.166Z,101251.16
2023-10-21T10:30:34.926Z,101246.78
2023-10-21T10:33:14.415Z,101238.88
2023-10-21T10:35:48.421Z,101230.09
2023-10-21T10:38:25.718Z,101220.41
2023-10-21T10:40:56.849Z,101222.13
2023-10-21T10:43:25.066Z,101215.22
2023-10-21T10:45:53.345Z,101204.47
2023-10-21T10:48:21.828Z,101196.91
2023-10-21T10:50:52.444Z,101194.88
2023-10-21T10:53:21.826Z,101205.94
2023-10-21T10:55:50.811Z,101207.16
2023-10-21T10:58:20.168Z,101213.25
2023-10-21T11:00:48.504Z,101148.28
2023-10-21T11:03:28.646Z,101216.69
2023-10-21T11:05:59.553Z,101195.84
2023-10-21T11:08:28.142Z,101191.38
2023-10-21T11:11:04.067Z,101195.69
2023-10-21T11:13:32.015Z,101193.91
2023-10-21T11:16:01.624Z,101187.06
2023-10-21T11:18:30.066Z,101181.88
2023-10-21T11:20:59.767Z,101184.47
2023-10-21T11:23:29.399Z,101180.22
2023-10-21T11:25:58.773Z,101187.97
2023-10-21T11:28:27.350Z,101182.84
2023-10-21T11:30:55.841Z,101182.03
2023-10-21T11:33:24.361Z,101160.97
2023-10-21T11:35:53.474Z,101179.41
2023-10-21T11:38:22.995Z,101166.56
2023-10-21T11:40:51.189Z,101149.16
2023-10-21T11:43:20.477Z,101135.81
2023-10-21T11:45:50.766Z,101163.94
2023-10-21T11:48:20.924Z,101147.28
2023-10-21T11:50:48.865Z,101151.81
2023-10-21T11:53:16.844Z,101137.91
2023-10-21T11:56:03.957Z,101120.94
2023-10-21T11:58:57.502Z,101141.41
2023-10-21T12:01:42.134Z,101138.88
2023-10-21T12:04:39.107Z,101125.78
2023-10-21T12:07:24.560Z,101134.41
2023-10-21T12:10:06.303Z,101123.84
2023-10-21T12:12:58.307Z,101132.63
2023-10-21T12:15:52.283Z,101132.72
2023-10-21T12:18:28.373Z,101144.09
2023-10-21T12:21:13.181Z,101136.28
2023-10-21T12:24:01.108Z,101119.84
2023-10-21T12:26:54.050Z,101120.50
2023-10-21T12:29:41.036Z,101136.28
2023-10-21T12:32:26.484Z,101130.25
2023-10-21T12:35:08.377Z,101125.06
2023-10-21T12:37:57.052Z,101117.31
2023-10-21T12:40:31.855Z,101121.63
2023-10-21T12:43:13.697Z,101114.50
2023-10-21T12:45:47.534Z,101122.59
2023-10-21T12:48:18.589Z,101114.88
2023-10-21T12:50:46.795Z,101115.69
2023-10-21T12:53:14.795Z,101120.00
2023-10-21T12:55:42.969Z,101100.06
2023-10-21T12:58:10.882Z,101094.78
2023-10-21T13:00:39.043Z,101080.50
2023-10-21T13:03:12.301Z,101098.34
2023-10-21T13:05:41.038Z,101105.34
2023-10-21T13:08:10.645Z,101083.41
2023-10-21T13:10:38.792Z,101079.81
2023-10-21T13:13:10.239Z,101105.44
2023-10-21T13:15:38.856Z,100973.47
2023-10-21T13:18:08.673Z,101091.59
2023-10-21T13:20:36.724Z,101102.06
2023-10-21T13:23:05.727Z,101092.47
2023-10-21T13:25:35.315Z,101088.75
2023-10-21T13:28:06.621Z,101100.38
2023-10-21T13:30:34.721Z,101113.47
2023-10-21T13:33:03.856Z,101058.09
2023-10-21T13:35:35.605Z,101122.25
2023-10-21T13:38:04.151Z,101118.81
2023-10-21T13:40:32.291Z,101075.66
2023-10-21T13:43:00.240Z,101106.38
2023-10-21T13:45:30.097Z,101117.94
2023-10-21T13:47:59.128Z,101121.44
2023-10-21T13:50:28.876Z,101113.31
2023-10-21T13:53:05.910Z,101117.13
2023-10-21T13:55:33.834Z,101074.69
2023-10-21T13:58:01.695Z,101090.84
2023-10-21T14:00:39.019Z,101098.06
2023-10-21T14:03:11.765Z,101099.94
2023-10-21T14:05:40.930Z,101090.31
2023-10-21T14:08:12.387Z,101076.25
2023-10-21T14:10:44.033Z,101074.63
2023-10-21T14:13:16.948Z,101076.25
2023-10-21T14:15:46.074Z,101082.22
2023-10-21T14:18:14.348Z,101072.53
2023-10-21T14:20:42.843Z,101061.09
2023-10-21T14:23:15.365Z,101042.19
2023-10-21T14:25:44.417Z,101065.16
2023-10-21T14:28:14.575Z,101063.38
2023-10-21T14:30:44.343Z,101049.31
2023-10-21T14:33:13.613Z,101040.41
2023-10-21T14:35:41.599Z,101049.19
2023-10-21T14:38:09.876Z,101036.09
2023-10-21T14:40:41.140Z,101041.22
2023-10-21T14:43:10.777Z,101028.72
2023-10-21T14:45:39.743Z,101022.63
2023-10-21T14:48:11.249Z,101030.44
2023-10-21T14:50:40.059Z,101009.78
2023-10-21T14:53:09.551Z,101013.63
2023-10-21T14:55:50.736Z,100989.34
2023-10-21T14:58:24.595Z,101019.72
2023-10-21T15:00:53.528Z,100964.50
2023-10-21T15:03:22.657Z,101014.44
2023-10-21T15:05:51.192Z,101024.25
2023-10-21T15:08:22.419Z,101027.59
2023-10-21T15:10:52.640Z,101016.22
2023-10-21T15:13:24.323Z,101022.41
2023-10-21T15:15:59.606Z,100976.91
2023-10-21T15:18:27.596Z,101020.38
2023-10-21T15:21:03.760Z,101021.00
2023-10-21T15:23:31.641Z,101014.75
2023-10-21T15:25:59.563Z,101021.75
2023-10-21T15:28:28.819Z,101026.81
2023-10-21T15:30:56.695Z,101023.22
2023-10-21T15:33:25.194Z,101019.19
2023-10-21T15:35:56.067Z,101036.91
2023-10-21T15:38:24.081Z,101028.88
2023-10-21T15:40:51.959Z,101036.75
2023-10-21T15:43:20.107Z,101026.09
2023-10-21T15:45:49.434Z,101033.09
2023-10-21T15:48:17.435Z,100922.94
2023-10-21T15:50:45.376Z,101045.06
2023-10-21T15:53:13.236Z,101042.38
2023-10-21T15:55:41.459Z,100850.41
2023-10-21T15:58:09.379Z,101032.72
2023-10-21T16:00:37.389Z,101027.78
2023-10-21T16:03:07.369Z,101039.38
2023-10-21T16:05:36.474Z,101042.81
2023-10-21T16:08:04.659Z,101035.81
2023-10-21T16:10:32.585Z,101040.94
2023-10-21T16:13:00.593Z,101026.16
2023-10-21T16:15:28.856Z,101014.38
2023-10-21T16:17:57.101Z,101023.47
2023-10-21T16:20:26.388Z,101023.38
2023-10-21T16:22:54.276Z,101031.19
2023-10-21T16:25:22.289Z,101023.38
2023-10-21T16:27:50.152Z,101018.09
2023-10-21T16:30:18.155Z,101023.31
2023-10-21T16:32:46.159Z,101017.22
2023-10-21T16:35:14.151Z,101013.78
2023-10-21T16:37:43.400Z,101019.91
2023-10-21T16:40:12.058Z,101019.00
2023-10-21T16:42:40.477Z,101019.00
2023-10-21T16:45:09.176Z,101007.84
2023-10-21T16:47:37.389Z,101005.19
2023-10-21T16:50:05.706Z,101013.88
2023-10-21T16:52:33.567Z,101018.25
2023-10-21T16:55:02.785Z,101023.38
2023-10-21T16:57:30.767Z,101019.06
2023-10-21T16:59:58.673Z,101019.00
2023-10-21T17:02:26.970Z,101015.50
2023-10-21T17:04:54.904Z,101012.91
2023-10-21T17:07:23.876Z,101012.91
2023-10-21T17:09:53.346Z,101015.50
2023-10-21T17:12:22.690Z,101011.28
2023-10-21T17:14:50.615Z,101023.47
2023-10-21T17:17:18.583Z,101004.94
2023-10-21T17:19:46.618Z,101019.97
2023-10-21T17:22:14.534Z,101016.56
2023-10-21T17:24:42.581Z,101022.56
2023-10-21T17:27:10.984Z,101002.44
2023-10-21T17:29:40.277Z,101003.81
2023-10-21T17:32:08.931Z,100968.41
2023-10-21T17:34:36.886Z,101019.81
2023-10-21T17:37:05.179Z,101009.91
2023-10-21T17:39:33.119Z,101012.81
2023-10-21T17:42:01.036Z,101021.44
2023-10-21T17:44:32.519Z,101015.34
2023-10-21T17:47:02.382Z,101004.63
2023-10-21T17:49:30.608Z,101015.28
2023-10-21T17:51:58.956Z,101015.28
2023-10-21T17:54:27.343Z,101010.16
2023-10-21T17:56:55.260Z,101005.84
2023-10-21T17:59:23.470Z,101008.28
2023-10-21T18:01:51.464Z,101016.16
2023-10-21T18:04:20.909Z,101023.88
2023-10-21T18:06:49.161Z,101022.09
2023-10-21T18:09:17.501Z,101022.84
2023-10-21T18:11:45.570Z,101014.13
2023-10-21T18:14:13.470Z,101018.38
2023-10-21T18:16:42.237Z,101019.25
2023-10-21T18:19:10.652Z,101008.78
2023-10-21T18:21:39.977Z,101013.91
2023-10-21T18:24:08.980Z,101010.41
2023-10-21T18:26:36.879Z,101004.16
2023-10-21T18:29:05.786Z,101001.72
2023-10-21T18:31:33.848Z,101010.34
2023-10-21T18:34:01.893Z,101006.84
2023-10-21T18:36:29.861Z,101004.16
2023-10-21T18:38:59.245Z,100999.69
2023-10-21T18:41:27.778Z,101003.09
2023-10-21T18:43:55.633Z,101000.50
2023-10-21T18:46:23.507Z,101003.91
2023-10-21T18:48:51.447Z,100956.72
2023-10-21T18:51:26.823Z,101006.41
2023-10-21T18:53:55.408Z,101003.63
2023-10-21T18:56:24.838Z,101000.88
2023-10-21T18:58:52.692Z,100993.72
2023-10-21T19:01:20.974Z,101004.28
2023-10-21T19:03:48.920Z,101010.38
2023-10-21T19:06:16.859Z,101004.13
2023-10-21T19:08:44.776Z,101012.91
2023-10-21T19:11:13.560Z,101013.38
2023-10-21T19:13:42.838Z,101013.56
2023-10-21T19:16:11.021Z,100984.16
2023-10-21T19:18:39.175Z,100991.97
2023-10-21T19:21:07.902Z,101009.81
2023-10-21T19:23:37.733Z,101013.16
2023-10-21T19:26:05.802Z,100993.81
2023-10-21T19:28:33.727Z,101007.88
2023-10-21T19:31:10.626Z,100963.13
2023-10-21T19:33:38.640Z,101007.78
2023-10-21T19:36:08.115Z,100990.81
2023-10-21T19:38:36.207Z,100998.94
2023-10-21T19:41:07.640Z,101001.44
2023-10-21T19:43:35.912Z,101001.38
2023-10-21T19:46:07.513Z,101000.47
2023-10-21T19:48:36.582Z,100996.09
2023-10-21T19:51:05.931Z,100987.31
2023-10-21T19:53:34.398Z,100992.44
2023-10-21T19:56:04.375Z,100991.63
2023-10-21T19:58:32.486Z,100981.00
2023-10-21T20:01:06.458Z,100981.88
2023-10-21T20:03:35.669Z,100990.66
2023-10-21T20:06:04.618Z,100986.44
2023-10-21T20:08:33.012Z,100980.44
2023-10-21T20:11:05.947Z,100978.72
2023-10-21T20:13:34.113Z,100974.41
2023-10-21T20:16:02.652Z,100972.72
2023-10-21T20:18:31.944Z,100955.91
2023-10-21T20:21:02.848Z,100972.72
2023-10-21T20:23:31.151Z,100973.53
2023-10-21T20:26:02.475Z,100972.72
2023-10-21T20:28:30.416Z,100936.75
2023-10-21T20:30:59.886Z,100970.84
2023-10-21T20:33:27.881Z,100956.41
2023-10-21T20:35:57.586Z,100966.38
2023-10-21T20:38:26.223Z,100962.88
2023-10-21T20:40:54.454Z,100947.78
2023-10-21T20:43:23.147Z,100932.06
2023-10-21T20:45:57.558Z,100952.50
2023-10-21T20:48:26.064Z,100957.69
2023-10-21T20:50:54.124Z,100941.13
2023-10-21T20:53:23.391Z,100948.03
2023-10-21T20:55:51.902Z,100941.06
2023-10-21T20:58:19.839Z,100947.06
2023-10-21T21:00:48.023Z,100942.59
2023-10-21T21:03:16.050Z,100938.28
2023-10-21T21:05:43.943Z,100935.69
2023-10-21T21:08:11.793Z,100935.69
2023-10-21T21:10:41.077Z,100935.63
2023-10-21T21:13:09.028Z,100922.31
2023-10-21T21:15:36.941Z,100925.16
2023-10-21T21:18:04.949Z,100923.53
2023-10-21T21:20:32.834Z,100928.63
2023-10-21T21:23:00.750Z,100912.31
2023-10-21T21:25:28.652Z,100943.25
2023-10-21T21:27:57.966Z,100937.25
2023-10-21T21:30:25.915Z,100940.00
2023-10-21T21:32:53.830Z,100933.03
2023-10-21T21:35:21.956Z,100927.81
2023-10-21T21:37:49.826Z,100917.59
2023-10-21T21:40:17.710Z,100922.78
2023-10-21T21:42:45.683Z,100927.19
2023-10-21T21:45:15.282Z,100919.22
2023-10-21T21:47:43.198Z,100932.53
2023-10-21T21:50:11.706Z,100922.13
2023-10-21T21:52:39.771Z,100928.31
2023-10-21T21:55:08.158Z,100927.50
2023-10-21T21:57:36.297Z,100931.81
2023-10-21T22:00:06.701Z,100933.66
2023-10-21T22:02:35.983Z,100924.09
2023-10-21T22:05:05.202Z,100925.88
2023-10-21T22:07:33.180Z,100896.41
2023-10-21T22:10:01.236Z,100891.06
2023-10-21T22:12:29.999Z,100915.56
2023-10-21T22:14:58.072Z,100926.03
2023-10-21T22:17:26.303Z,100915.47
2023-10-21T22:19:55.621Z,100921.00
2023-10-21T22:22:23.492Z,100890.06
2023-10-21T22:24:51.389Z,100901.03
2023-10-21T22:27:25.924Z,100913.19
2023-10-21T22:29:54.183Z,100917.50
2023-10-21T22:32:22.060Z,100905.09
2023-10-21T22:34:50.206Z,100908.81
2023-10-21T22:37:19.469Z,100906.22
2023-10-21T22:39:47.330Z,100902.56
2023-10-21T22:42:15.172Z,100908.00
2023-10-21T22:44:43.286Z,100897.38
2023-10-21T22:47:12.559Z,100907.03
2023-10-21T22:49:40.459Z,100873.13
2023-10-21T22:52:09.746Z,100901.09
2023-10-21T22:54:39.132Z,100907.25
2023-10-21T22:57:07.185Z,100915.94
2023-10-21T22:59:35.132Z,100913.44
2023-10-21T23:02:03.061Z,100903.03
2023-10-21T23:04:31.172Z,100905.56
2023-10-21T23:06:59.070Z,100906.59
2023-10-21T23:09:30.705Z,100897.69
2023-10-21T23:12:00.202Z,100905.78
2023-10-21T23:14:29.099Z,100904.97
2023-10-21T23:16:57.012Z,100904.97
2023-10-21T23:19:24.893Z,100900.53
2023-10-21T23:21:52.775Z,100904.25
2023-10-21T23:24:20.613Z,100906.84
2023-10-21T23:26:48.554Z,100913.00
2023-10-21T23:29:18.257Z,100909.59
2023-10-21T23:31:46.127Z,100913.97
2023-10-21T23:34:14.034Z,100913.16
2023-10-21T23:36:42.044Z,100913.31
2023-10-21T23:39:13.886Z,100901.16
2023-10-21T23:41:42.181Z,100905.59
2023-10-21T23:44:10.100Z,100901.28
2023-10-21T23:46:39.346Z,100889.03
2023-10-21T23:49:07.328Z,100867.06
2023-10-21T23:51:35.240Z,100883.34
2023-10-21T23:54:03.120Z,100885.94
2023-10-21T23:56:31.109Z,100889.47
2023-10-21T23:58:59.062Z,100864.91
